Time;durP1;ratioP1;P1;durP2;ratioP2;P2;SDS_P1;SDS_P2;PMS_P1;PMS_P2;Temp;Humidity;BMP_temperature;BMP_pressure;BME280_temperature;BME280_humidity;BME280_pressure;Samples;Min_cycle;Max_cycle;Signal;HPM_P1;HPM_P2
2021/06/24 00:00:47;;;;;;;8.83;2.97;;;;;;;;;;4994216;28;20397;-71
2021/06/24 00:03:14;;;;;;;5.47;3.10;;;;;;;;;;4993279;28;20393;-72
2021/06/24 00:05:40;;;;;;;5.00;3.27;;;;;;;;;;5014757;28;20514;-72
2021/06/24 00:08:07;;;;;;;5.50;3.17;;;;;;;;;;5014530;28;20416;-71
2021/06/24 00:10:34;;;;;;;5.17;3.27;;;;;;;;;;5014952;28;20423;-72
2021/06/24 00:13:00;;;;;;;5.50;3.50;;;;;;;;;;5028312;28;20514;-72
2021/06/24 00:15:26;;;;;;;3.10;2.60;;;;;;;;;;5015654;28;20562;-72
2021/06/24 00:17:52;;;;;;;3.80;3.27;;;;;;;;;;5039559;22;20446;-71
2021/06/24 00:20:18;;;;;;;4.97;3.57;;;;;;;;;;5015685;28;20498;-70
2021/06/24 00:22:44;;;;;;;4.63;3.63;;;;;;;;;;5001345;28;20530;-70
2021/06/24 00:25:11;;;;;;;6.00;3.30;;;;;;;;;;5012376;28;20451;-70
2021/06/24 00:27:37;;;;;;;7.00;4.30;;;;;;;;;;5031760;28;20458;-70
2021/06/24 00:30:04;;;;;;;5.90;3.47;;;;;;;;;;5015318;28;20447;-70
2021/06/24 00:32:30;;;;;;;5.47;3.70;;;;;;;;;;5017787;28;20406;-69
2021/06/24 00:35:00;;;;;;;6.83;3.70;;;;;;;;;;5017158;28;20423;-70
2021/06/24 00:37:26;;;;;;;6.97;4.10;;;;;;;;;;5019186;28;20747;-70
2021/06/24 00:39:52;;;;;;;7.63;4.83;;;;;;;;;;5017050;28;20459;-70
2021/06/24 00:42:19;;;;;;;8.83;4.40;;;;;;;;;;5016818;28;20396;-70
2021/06/24 00:44:45;;;;;;;7.63;4.00;;;;;;;;;;5015179;28;20431;-70
2021/06/24 00:47:11;;;;;;;7.07;4.30;;;;;;;;;;5016215;28;20454;-71
2021/06/24 00:49:37;;;;;;;6.30;4.10;;;;;;;;;;5014443;28;20538;-70
2021/06/24 00:52:03;;;;;;;7.20;4.70;;;;;;;;;;5016060;28;20891;-70
2021/06/24 00:54:30;;;;;;;6.77;5.03;;;;;;;;;;5013771;28;20428;-71
2021/06/24 00:56:56;;;;;;;6.00;4.70;;;;;;;;;;5015860;28;20490;-70
2021/06/24 00:59:22;;;;;;;10.00;4.00;;;;;;;;;;5015198;28;20459;-70
2021/06/24 01:01:49;;;;;;;9.47;4.93;;;;;;;;;;5015736;28;20420;-69
2021/06/24 01:04:21;;;;;;;5.90;4.67;;;;;;;;;;5010123;28;20456;-69
2021/06/24 01:06:48;;;;;;;6.97;4.03;;;;;;;;;;4998202;28;20397;-69
2021/06/24 01:09:14;;;;;;;8.33;4.37;;;;;;;;;;5004371;28;20939;-69
2021/06/24 01:11:40;;;;;;;6.40;3.77;;;;;;;;;;5018359;28;20419;-69
2021/06/24 01:14:06;;;;;;;10.73;5.80;;;;;;;;;;5015087;28;20942;-69
2021/06/24 01:16:32;;;;;;;5.90;3.80;;;;;;;;;;5013153;28;20435;-69
2021/06/24 01:18:58;;;;;;;7.03;3.47;;;;;;;;;;5013843;28;20549;-70
2021/06/24 01:21:24;;;;;;;6.03;3.40;;;;;;;;;;5012158;28;20447;-70
2021/06/24 01:23:50;;;;;;;4.20;3.03;;;;;;;;;;4997844;28;20514;-71
2021/06/24 01:26:16;;;;;;;4.30;3.37;;;;;;;;;;5015319;28;20431;-70
2021/06/24 01:28:43;;;;;;;4.00;2.80;;;;;;;;;;5012886;28;20439;-71
2021/06/24 01:31:09;;;;;;;4.00;2.70;;;;;;;;;;5014863;28;20428;-70
2021/06/24 01:33:35;;;;;;;5.33;2.97;;;;;;;;;;5014604;28;20856;-71
2021/06/24 01:36:03;;;;;;;4.00;2.70;;;;;;;;;;5014972;28;20420;-70
2021/06/24 01:38:29;;;;;;;3.00;2.00;;;;;;;;;;5015408;28;20555;-70
2021/06/24 01:40:55;;;;;;;7.33;3.13;;;;;;;;;;5014076;28;20507;-70
2021/06/24 01:43:21;;;;;;;5.23;2.50;;;;;;;;;;5014097;28;20487;-70
2021/06/24 01:45:49;;;;;;;3.00;2.40;;;;;;;;;;5012021;28;20435;-70
2021/06/24 01:48:15;;;;;;;4.83;2.57;;;;;;;;;;5014823;28;20432;-70
2021/06/24 01:50:41;;;;;;;4.57;2.90;;;;;;;;;;5011641;28;20436;-70
2021/06/24 01:53:08;;;;;;;3.17;2.50;;;;;;;;;;5012249;28;20429;-71
2021/06/24 01:55:35;;;;;;;7.60;3.07;;;;;;;;;;5011881;28;20482;-70
2021/06/24 01:58:03;;;;;;;4.80;2.10;;;;;;;;;;5014795;28;20475;-70
2021/06/24 02:00:29;;;;;;;3.63;2.80;;;;;;;;;;5013300;28;20431;-70
2021/06/24 02:02:55;;;;;;;3.70;2.47;;;;;;;;;;5013651;28;20459;-70
2021/06/24 02:05:22;;;;;;;5.33;3.00;;;;;;;;;;5013448;28;20478;-70
2021/06/24 02:07:48;;;;;;;3.40;2.70;;;;;;;;;;5014616;28;20458;-71
2021/06/24 02:10:14;;;;;;;5.70;2.93;;;;;;;;;;5011009;28;20465;-70
2021/06/24 02:12:41;;;;;;;6.13;2.27;;;;;;;;;;5012354;28;20435;-71
2021/06/24 02:15:08;;;;;;;3.23;2.70;;;;;;;;;;5011208;28;20797;-70
2021/06/24 02:17:35;;;;;;;3.13;2.50;;;;;;;;;;5014237;28;20408;-70
2021/06/24 02:20:01;;;;;;;3.20;2.57;;;;;;;;;;5012911;28;20470;-70
2021/06/24 02:22:27;;;;;;;7.50;2.33;;;;;;;;;;5014194;28;20403;-70
2021/06/24 02:24:53;;;;;;;4.77;2.97;;;;;;;;;;5012863;28;20436;-70
2021/06/24 02:27:19;;;;;;;7.43;2.70;;;;;;;;;;5012972;28;20436;-70
2021/06/24 02:29:45;;;;;;;3.80;2.60;;;;;;;;;;5013202;28;20624;-69
2021/06/24 02:32:11;;;;;;;3.20;2.40;;;;;;;;;;5014222;28;20416;-69
2021/06/24 02:34:37;;;;;;;3.87;2.73;;;;;;;;;;5012089;28;20462;-69
2021/06/24 02:37:03;;;;;;;6.80;2.90;;;;;;;;;;5014159;28;20415;-69
2021/06/24 02:39:30;;;;;;;3.73;3.00;;;;;;;;;;5011819;28;20471;-69
2021/06/24 02:41:56;;;;;;;4.40;2.90;;;;;;;;;;5013858;28;20792;-69
2021/06/24 02:44:22;;;;;;;3.90;2.83;;;;;;;;;;5013833;28;20396;-70
2021/06/24 02:46:48;;;;;;;4.20;2.87;;;;;;;;;;5011977;28;20505;-70
2021/06/24 02:49:14;;;;;;;3.40;2.70;;;;;;;;;;5013753;28;20872;-70
2021/06/24 02:51:40;;;;;;;5.33;2.77;;;;;;;;;;5012407;28;20463;-70
2021/06/24 02:54:06;;;;;;;2.70;2.10;;;;;;;;;;5013717;28;20457;-71
2021/06/24 02:56:39;;;;;;;4.40;2.90;;;;;;;;;;5012735;28;20489;-70
2021/06/24 02:59:05;;;;;;;2.97;2.33;;;;;;;;;;5014852;28;20482;-70
2021/06/24 03:01:31;;;;;;;2.40;1.70;;;;;;;;;;5012321;28;20432;-71
2021/06/24 03:03:57;;;;;;;3.10;2.20;;;;;;;;;;5028927;28;20420;-70
2021/06/24 03:06:23;;;;;;;3.00;2.07;;;;;;;;;;5012941;28;20435;-70
2021/06/24 03:08:49;;;;;;;4.30;2.83;;;;;;;;;;5013789;28;20451;-70
2021/06/24 03:11:15;;;;;;;5.40;2.47;;;;;;;;;;5012856;28;20431;-70
2021/06/24 03:13:41;;;;;;;6.90;2.50;;;;;;;;;;5013138;28;20423;-70
2021/06/24 03:16:08;;;;;;;3.90;2.60;;;;;;;;;;5012132;28;20508;-70
2021/06/24 03:18:34;;;;;;;3.77;2.20;;;;;;;;;;5011833;28;20530;-70
2021/06/24 03:21:00;;;;;;;4.33;2.50;;;;;;;;;;5011472;28;20796;-70
2021/06/24 03:23:26;;;;;;;3.57;2.30;;;;;;;;;;5013053;28;20420;-70
2021/06/24 03:25:54;;;;;;;3.40;2.57;;;;;;;;;;5012679;28;20432;-69
2021/06/24 03:28:20;;;;;;;2.77;2.00;;;;;;;;;;5013536;28;20423;-69
2021/06/24 03:30:46;;;;;;;2.83;2.23;;;;;;;;;;5008233;28;20432;-69
2021/06/24 03:33:12;;;;;;;6.90;2.87;;;;;;;;;;5023617;28;20423;-70
2021/06/24 03:35:38;;;;;;;2.80;2.33;;;;;;;;;;5012625;28;20431;-69
2021/06/24 03:38:04;;;;;;;2.90;2.20;;;;;;;;;;5013102;28;20455;-70
2021/06/24 03:40:30;;;;;;;4.60;2.50;;;;;;;;;;5012502;28;20796;-70
2021/06/24 03:42:56;;;;;;;4.77;2.67;;;;;;;;;;5006460;28;20416;-69
2021/06/24 03:45:23;;;;;;;5.73;3.13;;;;;;;;;;4998020;28;20526;-69
2021/06/24 03:47:49;;;;;;;3.50;2.57;;;;;;;;;;5013628;28;20841;-70
2021/06/24 03:50:15;;;;;;;3.70;2.27;;;;;;;;;;5012450;28;20508;-69
2021/06/24 03:52:41;;;;;;;4.50;2.57;;;;;;;;;;5013535;28;20999;-70
2021/06/24 03:55:08;;;;;;;2.70;2.20;;;;;;;;;;5011269;28;20438;-70
2021/06/24 03:57:34;;;;;;;6.30;3.63;;;;;;;;;;5011429;28;20428;-70
2021/06/24 04:00:00;;;;;;;5.87;3.17;;;;;;;;;;5010867;28;20515;-70
2021/06/24 04:02:26;;;;;;;4.30;2.83;;;;;;;;;;5012078;28;20439;-70
2021/06/24 04:04:52;;;;;;;3.93;2.73;;;;;;;;;;5013311;28;20469;-70
2021/06/24 04:07:19;;;;;;;3.50;2.50;;;;;;;;;;5013990;28;20498;-69
2021/06/24 04:09:45;;;;;;;5.40;4.10;;;;;;;;;;5014011;28;20503;-68
2021/06/24 04:12:11;;;;;;;5.03;2.53;;;;;;;;;;5012723;28;20426;-68
2021/06/24 04:14:37;;;;;;;4.70;2.60;;;;;;;;;;5015690;28;20427;-68
2021/06/24 04:17:03;;;;;;;3.60;2.80;;;;;;;;;;5012773;28;20903;-68
2021/06/24 04:19:29;;;;;;;6.40;2.77;;;;;;;;;;5014387;28;20467;-68
2021/06/24 04:21:55;;;;;;;3.00;1.93;;;;;;;;;;5013565;28;20432;-68
2021/06/24 04:24:21;;;;;;;4.33;2.87;;;;;;;;;;5014868;28;20410;-67
2021/06/24 04:26:47;;;;;;;10.43;3.30;;;;;;;;;;5011794;28;20451;-68
2021/06/24 04:29:13;;;;;;;3.30;2.53;;;;;;;;;;5013683;28;20799;-67
2021/06/24 04:31:39;;;;;;;5.30;3.10;;;;;;;;;;5013353;28;20428;-69
2021/06/24 04:34:06;;;;;;;4.27;3.27;;;;;;;;;;5014278;28;20410;-68
2021/06/24 04:36:32;;;;;;;4.90;2.77;;;;;;;;;;5013400;28;20936;-68
2021/06/24 04:38:59;;;;;;;7.10;3.37;;;;;;;;;;5014237;28;20490;-68
2021/06/24 04:41:25;;;;;;;5.00;3.20;;;;;;;;;;5013736;28;20526;-69
2021/06/24 04:43:51;;;;;;;5.37;3.17;;;;;;;;;;5014790;28;20542;-67
2021/06/24 04:46:17;;;;;;;8.47;3.13;;;;;;;;;;5014321;28;20490;-68
2021/06/24 04:48:43;;;;;;;4.67;3.07;;;;;;;;;;5015213;28;20956;-68
2021/06/24 04:51:09;;;;;;;3.33;2.57;;;;;;;;;;5014852;28;20427;-69
2021/06/24 04:53:35;;;;;;;8.87;3.87;;;;;;;;;;5017986;28;20452;-69
2021/06/24 04:56:01;;;;;;;5.80;3.47;;;;;;;;;;5016608;28;20795;-69
2021/06/24 04:58:27;;;;;;;5.27;3.70;;;;;;;;;;5018212;28;20473;-68
2021/06/24 05:00:53;;;;;;;6.20;3.70;;;;;;;;;;5016415;28;20787;-69
2021/06/24 05:03:19;;;;;;;5.13;3.93;;;;;;;;;;5018097;28;20436;-68
2021/06/24 05:05:47;;;;;;;8.23;3.87;;;;;;;;;;5018043;28;20412;-69
2021/06/24 05:08:20;;;;;;;3.83;3.30;;;;;;;;;;5017383;28;20439;-69
2021/06/24 05:10:46;;;;;;;5.90;4.17;;;;;;;;;;5017777;28;20457;-69
2021/06/24 05:13:12;;;;;;;5.50;3.00;;;;;;;;;;5017974;28;20423;-69
2021/06/24 05:15:40;;;;;;;4.30;3.40;;;;;;;;;;5020064;28;20404;-69
2021/06/24 05:18:08;;;;;;;4.87;2.80;;;;;;;;;;5018948;28;20579;-69
2021/06/24 05:20:34;;;;;;;4.80;2.83;;;;;;;;;;5020338;28;20980;-69
2021/06/24 05:23:00;;;;;;;4.00;2.90;;;;;;;;;;5016743;28;20450;-68
2021/06/24 05:25:26;;;;;;;6.70;3.50;;;;;;;;;;5015196;28;20407;-69
2021/06/24 05:27:52;;;;;;;3.80;2.53;;;;;;;;;;5014530;28;20518;-69
2021/06/24 05:30:18;;;;;;;4.00;3.17;;;;;;;;;;5015877;28;20446;-69
2021/06/24 05:32:45;;;;;;;5.07;3.70;;;;;;;;;;5014609;28;20928;-68
2021/06/24 05:35:12;;;;;;;6.80;3.70;;;;;;;;;;5014518;28;20638;-69
2021/06/24 05:37:38;;;;;;;7.63;4.27;;;;;;;;;;5014238;28;20439;-69
2021/06/24 05:40:04;;;;;;;4.60;3.40;;;;;;;;;;5015789;28;20432;-69
2021/06/24 05:42:30;;;;;;;6.57;3.67;;;;;;;;;;5014148;28;20463;-69
2021/06/24 05:44:56;;;;;;;5.53;3.60;;;;;;;;;;5015502;28;20410;-69
2021/06/24 05:47:22;;;;;;;4.87;3.97;;;;;;;;;;5014314;28;20427;-69
2021/06/24 05:49:48;;;;;;;5.03;3.33;;;;;;;;;;5015455;28;20448;-69
2021/06/24 05:52:14;;;;;;;7.67;3.17;;;;;;;;;;5014743;28;20438;-69
2021/06/24 05:54:41;;;;;;;6.27;3.57;;;;;;;;;;5015687;28;20399;-69
2021/06/24 05:57:07;;;;;;;4.23;2.50;;;;;;;;;;5014541;28;20481;-69
2021/06/24 05:59:33;;;;;;;4.23;3.10;;;;;;;;;;5015822;28;20463;-69
2021/06/24 06:01:59;;;;;;;5.00;2.90;;;;;;;;;;5014382;28;20419;-69
2021/06/24 06:04:25;;;;;;;5.20;3.40;;;;;;;;;;5015309;28;20422;-69
2021/06/24 06:06:51;;;;;;;4.33;3.50;;;;;;;;;;5014257;28;20455;-69
2021/06/24 06:09:17;;;;;;;4.47;3.60;;;;;;;;;;5014491;28;20479;-69
2021/06/24 06:11:44;;;;;;;3.33;2.70;;;;;;;;;;5013920;28;20980;-69
2021/06/24 06:14:10;;;;;;;4.13;2.80;;;;;;;;;;5013214;28;20442;-69
2021/06/24 06:16:37;;;;;;;4.80;3.60;;;;;;;;;;5014511;28;20871;-69
2021/06/24 06:19:03;;;;;;;3.47;2.50;;;;;;;;;;5014718;28;20972;-69
2021/06/24 06:21:30;;;;;;;6.10;3.03;;;;;;;;;;5014282;28;20447;-69
2021/06/24 06:23:57;;;;;;;4.20;3.20;;;;;;;;;;5015510;28;20438;-69
2021/06/24 06:26:24;;;;;;;3.17;2.70;;;;;;;;;;5014119;28;20407;-69
2021/06/24 06:28:50;;;;;;;3.80;2.90;;;;;;;;;;5015074;28;20428;-69
2021/06/24 06:31:17;;;;;;;3.43;2.77;;;;;;;;;;5014059;28;20427;-69
2021/06/24 06:33:43;;;;;;;3.00;2.63;;;;;;;;;;5013684;28;20795;-69
2021/06/24 06:36:09;;;;;;;3.40;2.57;;;;;;;;;;5015032;28;20482;-69
2021/06/24 06:38:35;;;;;;;3.90;2.27;;;;;;;;;;5013560;28;20480;-69
2021/06/24 06:41:01;;;;;;;2.93;2.03;;;;;;;;;;5014189;28;20456;-69
2021/06/24 06:43:27;;;;;;;2.77;2.33;;;;;;;;;;5013061;28;20427;-69
2021/06/24 06:45:53;;;;;;;5.87;2.60;;;;;;;;;;5014470;28;20419;-69
2021/06/24 06:48:19;;;;;;;4.73;2.67;;;;;;;;;;5013203;28;20490;-69
2021/06/24 06:50:46;;;;;;;3.17;2.50;;;;;;;;;;5014226;28;20908;-68
2021/06/24 06:53:12;;;;;;;3.00;2.37;;;;;;;;;;5013751;28;20434;-68
2021/06/24 06:55:39;;;;;;;4.07;2.77;;;;;;;;;;5014304;28;20753;-68
2021/06/24 06:58:05;;;;;;;5.30;3.00;;;;;;;;;;5009229;28;20835;-68
2021/06/24 07:00:33;;;;;;;3.27;2.37;;;;;;;;;;5005207;28;20419;-69
2021/06/24 07:02:59;;;;;;;4.00;2.57;;;;;;;;;;5007659;28;20412;-68
2021/06/24 07:05:25;;;;;;;3.40;2.87;;;;;;;;;;5007189;28;20502;-68
2021/06/24 07:07:51;;;;;;;5.00;2.90;;;;;;;;;;5011857;28;20967;-65
2021/06/24 07:10:18;;;;;;;5.83;3.20;;;;;;;;;;5013159;28;20420;-68
2021/06/24 07:12:44;;;;;;;4.03;2.80;;;;;;;;;;5011209;28;20467;-69
2021/06/24 07:15:10;;;;;;;3.20;2.90;;;;;;;;;;5012225;28;20760;-68
2021/06/24 07:17:36;;;;;;;3.50;2.80;;;;;;;;;;5011993;28;20917;-67
2021/06/24 07:20:03;;;;;;;4.77;2.97;;;;;;;;;;5011340;28;20542;-68
2021/06/24 07:22:29;;;;;;;4.60;3.07;;;;;;;;;;5011700;28;20967;-67
2021/06/24 07:24:55;;;;;;;3.60;2.83;;;;;;;;;;5012299;28;20443;-69
2021/06/24 07:27:21;;;;;;;4.03;2.57;;;;;;;;;;5007078;28;20427;-69
2021/06/24 07:29:47;;;;;;;2.93;2.47;;;;;;;;;;5007840;28;20813;-63
2021/06/24 07:32:13;;;;;;;4.00;2.87;;;;;;;;;;5011310;28;20550;-64
2021/06/24 07:34:39;;;;;;;2.50;2.17;;;;;;;;;;5012421;28;20518;-64
2021/06/24 07:37:05;;;;;;;2.90;2.53;;;;;;;;;;5011485;28;20514;-67
2021/06/24 07:39:32;;;;;;;2.53;1.90;;;;;;;;;;5011583;28;20463;-66
2021/06/24 07:41:58;;;;;;;3.00;1.83;;;;;;;;;;5012456;28;20435;-66
2021/06/24 07:44:24;;;;;;;3.03;2.03;;;;;;;;;;5014127;28;20410;-66
2021/06/24 07:46:50;;;;;;;3.03;1.73;;;;;;;;;;5011601;28;20986;-68
2021/06/24 07:49:16;;;;;;;2.00;1.40;;;;;;;;;;5011364;28;20436;-69
2021/06/24 07:51:42;;;;;;;1.87;1.33;;;;;;;;;;4999661;28;20499;-66
2021/06/24 07:54:08;;;;;;;3.73;2.53;;;;;;;;;;5014957;28;20436;-66
2021/06/24 07:56:34;;;;;;;2.47;2.07;;;;;;;;;;5014564;28;20430;-68
2021/06/24 07:59:00;;;;;;;2.53;2.00;;;;;;;;;;5013418;28;20459;-67
2021/06/24 08:01:26;;;;;;;2.10;1.53;;;;;;;;;;5014292;28;20495;-66
2021/06/24 08:03:54;;;;;;;2.67;1.77;;;;;;;;;;5011915;28;20788;-64
2021/06/24 08:06:20;;;;;;;2.40;1.37;;;;;;;;;;5011357;28;20783;-66
2021/06/24 08:08:46;;;;;;;2.40;1.80;;;;;;;;;;5009125;28;20450;-65
2021/06/24 08:11:12;;;;;;;2.30;1.50;;;;;;;;;;5010733;28;20435;-68
2021/06/24 08:13:38;;;;;;;2.73;1.87;;;;;;;;;;5011123;28;20998;-68
2021/06/24 08:16:04;;;;;;;2.33;1.63;;;;;;;;;;5012249;28;20428;-70
2021/06/24 08:18:30;;;;;;;2.63;1.47;;;;;;;;;;5002179;28;20994;-70
2021/06/24 08:20:57;;;;;;;2.33;1.67;;;;;;;;;;5008238;28;20454;-70
2021/06/24 08:23:23;;;;;;;2.13;1.50;;;;;;;;;;5008651;28;20521;-71
2021/06/24 08:25:49;;;;;;;2.47;1.50;;;;;;;;;;5011100;28;20423;-72
2021/06/24 08:28:16;;;;;;;2.20;1.40;;;;;;;;;;5012041;28;20459;-72
2021/06/24 08:30:44;;;;;;;2.83;1.67;;;;;;;;;;5011930;28;20477;-73
2021/06/24 08:33:10;;;;;;;2.47;1.80;;;;;;;;;;5015658;28;20427;-68
2021/06/24 08:35:36;;;;;;;3.37;2.10;;;;;;;;;;5013576;28;20434;-68
2021/06/24 08:38:02;;;;;;;5.43;1.73;;;;;;;;;;5012954;28;20513;-69
2021/06/24 08:40:29;;;;;;;2.43;1.53;;;;;;;;;;5014500;28;20432;-70
2021/06/24 08:42:55;;;;;;;2.10;1.40;;;;;;;;;;5012144;28;20439;-71
2021/06/24 08:45:21;;;;;;;1.93;1.43;;;;;;;;;;5015921;28;20428;-68
2021/06/24 08:47:48;;;;;;;3.40;1.93;;;;;;;;;;5013912;28;20432;-69
2021/06/24 08:50:16;;;;;;;3.50;2.10;;;;;;;;;;5015888;28;20412;-68
2021/06/24 08:52:48;;;;;;;2.00;1.30;;;;;;;;;;5014333;28;20427;-67
2021/06/24 08:55:14;;;;;;;3.80;1.93;;;;;;;;;;5015629;28;20419;-68
2021/06/24 08:57:40;;;;;;;3.57;1.53;;;;;;;;;;5012403;28;20439;-67
2021/06/24 09:00:08;;;;;;;2.17;1.57;;;;;;;;;;5004833;28;20878;-69
2021/06/24 09:02:44;;;;;;;2.30;1.50;;;;;;;;;;5008278;28;20510;-69
2021/06/24 09:05:11;;;;;;;2.90;1.80;;;;;;;;;;5013567;28;20441;-69
2021/06/24 09:08:03;;;;;;;4.20;3.27;;;;;;;;;;5012201;28;20438;-70
2021/06/24 09:10:29;;;;;;;2.53;1.47;;;;;;;;;;5010875;28;20428;-65
2021/06/24 09:13:04;;;;;;;2.27;1.40;;;;;;;;;;5012615;28;20434;-65
2021/06/24 09:15:37;;;;;;;3.07;2.03;;;;;;;;;;5010570;28;20532;-64
2021/06/24 09:18:03;;;;;;;3.00;1.77;;;;;;;;;;5008711;28;21085;-64
2021/06/24 09:20:30;;;;;;;7.53;1.57;;;;;;;;;;5013364;28;20424;-68
2021/06/24 09:23:07;;;;;;;2.50;1.63;;;;;;;;;;5015369;28;20456;-68
2021/06/24 09:25:33;;;;;;;2.97;1.93;;;;;;;;;;5014236;28;20489;-70
2021/06/24 09:27:59;;;;;;;2.87;1.87;;;;;;;;;;5014372;28;20436;-66
2021/06/24 09:30:29;;;;;;;3.27;1.77;;;;;;;;;;5015476;28;20450;-69
2021/06/24 09:32:56;;;;;;;2.70;1.73;;;;;;;;;;5012390;28;20451;-67
2021/06/24 09:35:23;;;;;;;3.10;1.93;;;;;;;;;;5014557;28;20420;-70
2021/06/24 09:38:08;;;;;;;2.80;2.03;;;;;;;;;;5009971;28;20467;-68
2021/06/24 09:40:38;;;;;;;6.60;1.97;;;;;;;;;;5013840;28;20505;-68
2021/06/24 09:43:04;;;;;;;2.50;1.80;;;;;;;;;;5014031;28;20833;-69
2021/06/24 09:45:30;;;;;;;7.83;2.30;;;;;;;;;;5014099;28;20900;-69
2021/06/24 09:48:12;;;;;;;2.20;1.80;;;;;;;;;;5015331;28;20419;-69
2021/06/24 09:50:39;;;;;;;2.43;1.60;;;;;;;;;;5015398;28;20919;-70
2021/06/24 09:53:10;;;;;;;2.83;1.30;;;;;;;;;;5014982;28;20830;-69
2021/06/24 09:55:36;;;;;;;4.47;1.73;;;;;;;;;;5013683;28;20491;-66
2021/06/24 09:58:15;;;;;;;3.33;1.70;;;;;;;;;;5012414;28;21150;-66
2021/06/24 10:00:49;;;;;;;5.87;2.37;;;;;;;;;;5013519;28;20728;-70
2021/06/24 10:03:15;;;;;;;4.47;1.93;;;;;;;;;;5010675;28;20485;-69
2021/06/24 10:05:43;;;;;;;3.57;1.80;;;;;;;;;;5013513;28;20438;-70
2021/06/24 10:08:09;;;;;;;3.40;1.80;;;;;;;;;;5014447;28;20454;-69
2021/06/24 10:10:36;;;;;;;3.27;2.10;;;;;;;;;;5014293;28;20840;-72
2021/06/24 10:13:02;;;;;;;3.17;1.70;;;;;;;;;;5012134;28;20503;-71
2021/06/24 10:15:29;;;;;;;4.03;2.00;;;;;;;;;;5003884;28;20524;-70
2021/06/24 10:17:56;;;;;;;5.43;2.10;;;;;;;;;;5013031;28;20466;-70
2021/06/24 10:20:23;;;;;;;2.90;1.80;;;;;;;;;;5014000;28;20459;-70
2021/06/24 10:23:01;;;;;;;3.53;2.30;;;;;;;;;;5011162;28;20427;-64
2021/06/24 10:25:28;;;;;;;2.83;2.07;;;;;;;;;;5009295;28;20426;-67
2021/06/24 10:27:55;;;;;;;2.70;2.20;;;;;;;;;;5006955;28;20826;-70
2021/06/24 10:30:22;;;;;;;4.27;2.50;;;;;;;;;;5012373;28;20431;-70
2021/06/24 10:33:01;;;;;;;4.30;1.93;;;;;;;;;;5006538;28;20986;-70
2021/06/24 10:35:28;;;;;;;4.27;3.47;;;;;;;;;;5012648;28;20430;-69
2021/06/24 10:37:55;;;;;;;5.40;2.10;;;;;;;;;;5012104;28;20498;-69
2021/06/24 10:40:23;;;;;;;3.40;2.53;;;;;;;;;;5010443;28;20522;-69
2021/06/24 10:42:53;;;;;;;3.40;2.60;;;;;;;;;;5012412;28;20431;-69
2021/06/24 10:45:19;;;;;;;2.43;1.90;;;;;;;;;;5012825;28;20423;-69
2021/06/24 10:47:45;;;;;;;3.33;2.20;;;;;;;;;;5002779;28;20462;-70
2021/06/24 10:50:30;;;;;;;3.40;1.63;;;;;;;;;;5012919;28;20419;-69
2021/06/24 10:52:57;;;;;;;3.07;1.80;;;;;;;;;;5012631;28;20430;-69
2021/06/24 10:55:32;;;;;;;2.40;1.73;;;;;;;;;;5011720;28;20424;-73
2021/06/24 10:57:59;;;;;;;3.53;2.10;;;;;;;;;;5012248;28;20466;-71
2021/06/24 11:00:40;;;;;;;3.50;1.90;;;;;;;;;;5012882;28;20466;-71
2021/06/24 11:03:08;;;;;;;2.70;1.87;;;;;;;;;;5009861;28;20419;-71
2021/06/24 11:05:44;;;;;;;5.13;2.40;;;;;;;;;;5013238;28;20418;-71
2021/06/24 11:08:14;;;;;;;3.40;1.77;;;;;;;;;;5011599;28;20501;-71
2021/06/24 11:10:59;;;;;;;3.17;2.00;;;;;;;;;;5012215;28;20462;-70
2021/06/24 11:13:38;;;;;;;4.70;1.93;;;;;;;;;;5011619;28;20489;-72
2021/06/24 11:16:12;;;;;;;2.43;1.50;;;;;;;;;;5006463;28;20408;-64
2021/06/24 11:18:48;;;;;;;2.20;1.60;;;;;;;;;;5010427;28;20475;-64
2021/06/24 11:21:21;;;;;;;3.13;2.20;;;;;;;;;;5008398;28;20482;-65
2021/06/24 11:24:01;;;;;;;3.30;1.93;;;;;;;;;;5011307;28;20850;-65
2021/06/24 11:26:27;;;;;;;2.03;1.43;;;;;;;;;;5010810;28;20413;-66
2021/06/24 11:29:05;;;;;;;3.43;1.77;;;;;;;;;;5010544;28;21046;-68
2021/06/24 11:31:35;;;;;;;2.40;1.50;;;;;;;;;;5011113;28;20428;-70
2021/06/24 11:36:52;;;;;;;3.30;1.87;;;;;;;;;;5013888;28;20418;-67
2021/06/24 11:39:25;;;;;;;2.90;1.70;;;;;;;;;;5012786;28;20459;-68
2021/06/24 11:41:55;;;;;;;4.57;1.77;;;;;;;;;;5012956;28;20431;-67
2021/06/24 11:44:25;;;;;;;10.03;2.30;;;;;;;;;;5012524;28;20424;-68
2021/06/24 11:47:12;;;;;;;3.10;1.73;;;;;;;;;;5003427;28;20427;-66
2021/06/24 12:03:52;;;;;;;3.23;2.13;;;;;;;;;;5016252;28;20768;-67
2021/06/24 12:06:18;;;;;;;2.73;1.97;;;;;;;;;;5017043;28;20412;-68
2021/06/24 12:08:44;;;;;;;2.50;1.67;;;;;;;;;;5016817;28;20808;-67
2021/06/24 12:11:11;;;;;;;3.53;1.90;;;;;;;;;;5018048;28;20419;-69
2021/06/24 12:13:38;;;;;;;4.00;2.20;;;;;;;;;;5015860;28;20458;-66
2021/06/24 12:16:11;;;;;;;3.13;1.87;;;;;;;;;;5016074;28;20498;-65
2021/06/24 12:18:41;;;;;;;4.93;1.80;;;;;;;;;;5014091;28;20547;-70
2021/06/24 12:21:11;;;;;;;2.50;2.00;;;;;;;;;;5012816;28;20518;-70
2021/06/24 12:23:47;;;;;;;3.00;2.10;;;;;;;;;;5016329;28;20934;-70
2021/06/24 12:26:14;;;;;;;3.03;2.00;;;;;;;;;;5016549;28;20480;-70
2021/06/24 12:28:41;;;;;;;3.97;2.17;;;;;;;;;;5016258;28;20918;-70
2021/06/24 12:31:17;;;;;;;3.57;2.83;;;;;;;;;;5017241;28;20404;-69
2021/06/24 12:33:43;;;;;;;4.37;2.67;;;;;;;;;;5015983;28;20427;-70
2021/06/24 12:36:09;;;;;;;4.07;2.57;;;;;;;;;;5016641;28;20422;-70
2021/06/24 12:38:36;;;;;;;3.53;2.63;;;;;;;;;;5015805;28;20873;-70
2021/06/24 12:41:09;;;;;;;2.43;2.10;;;;;;;;;;5016914;28;20493;-70
2021/06/24 12:43:36;;;;;;;3.43;2.90;;;;;;;;;;5013740;28;20518;-70
2021/06/24 12:46:04;;;;;;;4.43;2.53;;;;;;;;;;5016572;28;20848;-69
2021/06/24 12:48:34;;;;;;;4.00;2.80;;;;;;;;;;5015595;28;20521;-70
2021/06/24 12:51:01;;;;;;;3.70;2.77;;;;;;;;;;5015832;28;20429;-70
2021/06/24 12:53:29;;;;;;;2.90;2.27;;;;;;;;;;5015832;28;21728;-70
2021/06/24 12:55:55;;;;;;;2.70;2.20;;;;;;;;;;5015433;28;20502;-70
2021/06/24 12:58:27;;;;;;;3.40;2.10;;;;;;;;;;5015813;28;20542;-70
2021/06/24 13:01:09;;;;;;;3.00;2.20;;;;;;;;;;5016407;28;20475;-70
2021/06/24 13:03:36;;;;;;;3.40;2.07;;;;;;;;;;5015209;28;20419;-70
2021/06/24 13:06:08;;;;;;;3.40;2.20;;;;;;;;;;5014947;28;20434;-71
2021/06/24 13:08:34;;;;;;;2.97;2.40;;;;;;;;;;5013011;28;20444;-69
2021/06/24 13:11:10;;;;;;;3.70;2.30;;;;;;;;;;5015703;28;20830;-69
2021/06/24 13:13:36;;;;;;;2.83;2.17;;;;;;;;;;5014351;28;20427;-69
2021/06/24 13:16:20;;;;;;;2.50;2.10;;;;;;;;;;5016109;28;20458;-68
2021/06/24 13:18:53;;;;;;;2.97;2.00;;;;;;;;;;5016129;28;20486;-68
2021/06/24 13:21:19;;;;;;;2.77;2.00;;;;;;;;;;5015506;28;20506;-68
2021/06/24 13:23:45;;;;;;;4.93;3.17;;;;;;;;;;5014351;28;20515;-69
2021/06/24 13:26:21;;;;;;;2.73;2.37;;;;;;;;;;5016400;28;20850;-68
2021/06/24 13:28:56;;;;;;;3.47;2.50;;;;;;;;;;5011410;28;20461;-68
2021/06/24 13:31:23;;;;;;;2.87;1.93;;;;;;;;;;5014822;28;20435;-70
2021/06/24 13:33:50;;;;;;;3.20;2.30;;;;;;;;;;5015225;28;20456;-68
2021/06/24 13:36:26;;;;;;;3.00;2.43;;;;;;;;;;5015442;28;20416;-70
2021/06/24 13:38:59;;;;;;;2.77;2.00;;;;;;;;;;5008684;28;20467;-67
2021/06/24 13:41:27;;;;;;;2.10;1.70;;;;;;;;;;5013303;28;20502;-67
2021/06/24 13:44:13;;;;;;;3.23;2.37;;;;;;;;;;5013997;28;20928;-67
2021/06/24 13:46:40;;;;;;;1.97;1.33;;;;;;;;;;5009155;28;20438;-69
2021/06/24 13:49:07;;;;;;;2.40;2.10;;;;;;;;;;5013947;28;20448;-69
2021/06/24 13:51:33;;;;;;;2.40;1.70;;;;;;;;;;5015230;28;20435;-67
2021/06/24 13:54:06;;;;;;;5.30;2.00;;;;;;;;;;5014751;28;20514;-67
2021/06/24 13:56:33;;;;;;;2.90;1.80;;;;;;;;;;5015212;28;20412;-68
2021/06/24 13:58:59;;;;;;;2.43;1.70;;;;;;;;;;5008515;28;20950;-68
2021/06/24 14:01:25;;;;;;;3.77;1.87;;;;;;;;;;5003591;28;20412;-67
2021/06/24 14:03:52;;;;;;;2.50;1.83;;;;;;;;;;5013362;28;20503;-68
2021/06/24 14:06:18;;;;;;;2.30;1.70;;;;;;;;;;5014762;28;20786;-68
2021/06/24 14:08:45;;;;;;;2.27;1.50;;;;;;;;;;5014304;28;20467;-68
2021/06/24 14:11:13;;;;;;;4.93;1.43;;;;;;;;;;5015093;28;20806;-68
2021/06/24 14:13:41;;;;;;;2.17;1.70;;;;;;;;;;5012432;28;20948;-69
2021/06/24 14:16:08;;;;;;;3.77;1.60;;;;;;;;;;5013854;28;20428;-69
2021/06/24 14:18:34;;;;;;;3.97;2.27;;;;;;;;;;5014720;28;20541;-65
2021/06/24 14:21:00;;;;;;;4.23;1.80;;;;;;;;;;5014693;28;20460;-67
2021/06/24 14:23:26;;;;;;;3.30;1.70;;;;;;;;;;5015116;28;20412;-66
2021/06/24 14:25:52;;;;;;;2.23;1.70;;;;;;;;;;5013990;28;20767;-66
2021/06/24 14:28:18;;;;;;;2.60;2.17;;;;;;;;;;5014050;28;20521;-66
2021/06/24 14:30:44;;;;;;;3.27;1.80;;;;;;;;;;5013001;28;20420;-65
2021/06/24 14:33:10;;;;;;;2.77;2.00;;;;;;;;;;5014286;28;20416;-66
2021/06/24 14:35:36;;;;;;;2.37;1.77;;;;;;;;;;5013139;28;20516;-66
2021/06/24 14:38:02;;;;;;;3.30;1.90;;;;;;;;;;5013095;28;20496;-65
2021/06/24 14:40:29;;;;;;;2.60;1.77;;;;;;;;;;5008328;28;20412;-65
2021/06/24 14:42:55;;;;;;;3.40;2.00;;;;;;;;;;5013760;28;20420;-66
2021/06/24 14:45:21;;;;;;;3.37;1.63;;;;;;;;;;5011633;28;20423;-66
2021/06/24 14:47:47;;;;;;;2.60;2.00;;;;;;;;;;5013230;28;20420;-67
2021/06/24 14:50:14;;;;;;;2.20;1.70;;;;;;;;;;5013037;28;20428;-66
2021/06/24 14:52:40;;;;;;;2.10;1.23;;;;;;;;;;5009165;28;20484;-67
2021/06/24 14:55:06;;;;;;;2.20;1.67;;;;;;;;;;5020081;28;20506;-67
2021/06/24 14:57:32;;;;;;;2.53;1.80;;;;;;;;;;5014814;28;20404;-67
2021/06/24 14:59:58;;;;;;;2.20;1.80;;;;;;;;;;5013306;28;20546;-67
2021/06/24 15:02:24;;;;;;;2.63;1.63;;;;;;;;;;5014358;28;20989;-68